Fontanelle, Iowa
Current Conditions -  °F | °C
As of 10:35 PM on Wednesday 28 Jan 2015 (Local Time) from KCSQ Reporting Station
Clear Clear  
Wind Chill: 29°   Ceiling: Unl
Heat Index: 37°   Visibility: 10mi
Dew Point: 34°   Wind: 15mph
Humidity: 87%   Direction: 300°WNW
Pressure: 29.76"   Gusts: NA
Location:  41.29°N, 94.56°W
Report Text: KCSQ 290435Z AUTO 30013KT 10SM CLR 03/01 A2976 RMK AO2
Loading
Personal Weather Stations






























Interactive Weather Map New forecast layout! Learn more

10-Day Weather Forecast

Advertisements
Track Severe Weather on mobile